Miesville, Minnesota
Current Conditions -  °F | °C
As of 12:54 PM on Tuesday 27 Jan 2015 (Local Time) from KSYN Reporting Station
Overcast Overcast  
Wind Chill: 28°   Ceiling: 1800
Heat Index: 34°   Visibility: 10mi
Dew Point: 26°   Wind: 7mph
Humidity: 73%   Direction: 90°E
Pressure: 30.15"   Gusts: NA
Location:  44.4763°N, 92.8054°W
Report Text: KSYN 271854Z AUTO 09006KT 10SM OVC018 01/M03 A3015 RMK AO2 T00101033
Loading
Personal Weather Stations






























Interactive Weather Map New forecast layout! Learn more

10-Day Weather Forecast

Advertisements
Track Severe Weather on mobile